createdAt,value
2017-06-17T00:00:41.709Z,45.90
2017-06-17T00:03:09.306Z,46.00
2017-06-17T00:05:36.854Z,45.90
2017-06-17T00:08:04.406Z,46.00
2017-06-17T00:10:31.964Z,45.90
2017-06-17T00:12:59.507Z,46.10
2017-06-17T00:15:27.849Z,46.30
2017-06-17T00:17:55.401Z,46.30
2017-06-17T00:20:22.988Z,46.10
2017-06-17T00:22:50.566Z,46.30
2017-06-17T00:25:18.197Z,46.20
2017-06-17T00:27:45.793Z,46.50
2017-06-17T00:30:13.336Z,46.60
2017-06-17T00:32:40.904Z,46.20
2017-06-17T00:35:08.448Z,46.40
2017-06-17T00:37:36.014Z,46.50
2017-06-17T00:40:03.567Z,46.60
2017-06-17T00:42:31.103Z,46.40
2017-06-17T00:44:59.435Z,46.50
2017-06-17T00:47:26.981Z,46.40
2017-06-17T00:49:54.549Z,46.60
2017-06-17T00:52:22.089Z,46.50
2017-06-17T00:54:49.659Z,46.60
2017-06-17T00:57:17.193Z,46.80
2017-06-17T00:59:44.752Z,46.70
2017-06-17T01:02:12.293Z,46.90
2017-06-17T01:04:39.871Z,46.90
2017-06-17T01:07:07.410Z,46.80
2017-06-17T01:09:34.965Z,46.40
2017-06-17T01:12:02.546Z,46.50
2017-06-17T01:14:30.101Z,46.60
2017-06-17T01:16:57.685Z,46.60
2017-06-17T01:19:25.221Z,46.60
2017-06-17T01:21:52.791Z,46.80
2017-06-17T01:24:20.330Z,46.90
2017-06-17T01:26:48.644Z,47.40
2017-06-17T01:29:16.184Z,47.30
2017-06-17T01:31:43.746Z,47.50
2017-06-17T01:34:11.292Z,47.50
2017-06-17T01:36:39.649Z,47.80
2017-06-17T01:39:07.511Z,47.70
2017-06-17T01:41:35.099Z,47.60
2017-06-17T01:44:02.656Z,47.50
2017-06-17T01:46:30.198Z,47.40
2017-06-17T01:48:57.765Z,47.20
2017-06-17T01:51:25.310Z,47.20
2017-06-17T01:53:52.930Z,47.40
2017-06-17T01:56:20.479Z,47.50
2017-06-17T01:58:48.031Z,47.30
2017-06-17T02:01:15.578Z,47.60
2017-06-17T02:03:43.159Z,47.60
2017-06-17T02:06:11.570Z,47.70
2017-06-17T02:08:39.456Z,47.70
2017-06-17T02:11:07.786Z,47.90
2017-06-17T02:13:35.348Z,47.80
2017-06-17T02:16:02.917Z,47.90
2017-06-17T02:18:30.461Z,48.00
2017-06-17T02:21:03.809Z,47.70
2017-06-17T02:23:31.368Z,47.50
2017-06-17T02:25:58.961Z,47.80
2017-06-17T02:28:27.288Z,48.10
2017-06-17T02:30:54.860Z,48.00
2017-06-17T02:33:22.408Z,48.10
2017-06-17T02:35:49.988Z,48.10
2017-06-17T02:38:17.528Z,48.10
2017-06-17T02:40:45.102Z,48.30
2017-06-17T02:43:12.701Z,48.30
2017-06-17T02:45:40.266Z,48.30
2017-06-17T02:48:07.828Z,48.30
2017-06-17T02:50:35.373Z,48.20
2017-06-17T02:53:02.952Z,48.20
2017-06-17T02:55:30.519Z,48.20
2017-06-17T02:57:58.066Z,48.20
2017-06-17T03:00:25.605Z,48.20
2017-06-17T03:02:53.196Z,47.50
2017-06-17T03:05:21.246Z,47.80
2017-06-17T03:07:48.863Z,47.80
2017-06-17T03:10:16.433Z,47.80
2017-06-17T03:12:44.035Z,47.80
2017-06-17T03:15:11.615Z,47.80
2017-06-17T03:17:39.221Z,47.90
2017-06-17T03:20:06.791Z,48.10
2017-06-17T03:22:34.345Z,47.70
2017-06-17T03:25:01.909Z,48.10
2017-06-17T03:27:29.530Z,48.00
2017-06-17T03:29:57.850Z,48.20
2017-06-17T03:32:25.407Z,48.10
2017-06-17T03:34:52.968Z,48.20
2017-06-17T03:37:20.517Z,47.80
2017-06-17T03:39:48.067Z,47.80
2017-06-17T03:42:15.662Z,47.70
2017-06-17T03:44:43.198Z,47.70
2017-06-17T03:47:11.565Z,48.10
2017-06-17T03:49:39.086Z,48.10
2017-06-17T03:52:07.079Z,47.90
2017-06-17T03:54:34.638Z,48.20
2017-06-17T03:57:02.160Z,48.10
2017-06-17T03:59:29.721Z,47.90
2017-06-17T04:01:57.273Z,48.10
2017-06-17T04:04:25.594Z,46.30
2017-06-17T04:06:53.129Z,46.20
2017-06-17T04:09:21.493Z,45.70
2017-06-17T04:11:49.811Z,45.50
2017-06-17T04:14:17.358Z,45.50
2017-06-17T04:16:44.913Z,45.30
2017-06-17T04:19:13.221Z,45.20
2017-06-17T04:21:41.629Z,45.20
2017-06-17T04:24:09.169Z,45.10
2017-06-17T04:26:36.733Z,45.70
2017-06-17T04:29:04.293Z,45.50
2017-06-17T04:31:31.858Z,43.40
2017-06-17T04:33:59.395Z,40.80
2017-06-17T04:36:27.721Z,40.00
2017-06-17T04:38:55.308Z,40.00
2017-06-17T04:41:22.866Z,41.50
2017-06-17T04:43:50.422Z,42.10
2017-06-17T04:46:17.971Z,41.90
2017-06-17T04:48:45.564Z,41.70
2017-06-17T04:51:13.101Z,40.00
2017-06-17T04:53:40.681Z,37.40
2017-06-17T04:56:08.222Z,34.20
2017-06-17T04:58:35.844Z,35.10
2017-06-17T05:01:03.394Z,34.20
2017-06-17T05:03:30.944Z,35.30
2017-06-17T05:05:58.524Z,36.40
2017-06-17T05:08:26.058Z,37.20
2017-06-17T05:10:53.612Z,37.50
2017-06-17T05:13:21.157Z,35.10
2017-06-17T05:15:49.501Z,34.40
2017-06-17T05:18:17.033Z,34.30
2017-06-17T05:20:44.614Z,34.90
2017-06-17T05:23:12.162Z,36.10
2017-06-17T05:25:39.729Z,36.20
2017-06-17T05:28:13.038Z,35.80
2017-06-17T05:30:40.581Z,30.80
2017-06-17T05:33:08.161Z,27.70
2017-06-17T05:35:35.713Z,27.10
2017-06-17T05:38:03.299Z,24.20
2017-06-17T05:40:30.840Z,20.60
2017-06-17T05:42:58.534Z,18.70
2017-06-17T05:45:26.304Z,16.70
2017-06-17T05:47:54.308Z,16.40
2017-06-17T05:50:22.167Z,15.80
2017-06-17T05:52:49.976Z,16.20
2017-06-17T05:55:17.561Z,16.60
2017-06-17T05:57:45.108Z,15.60
2017-06-17T06:00:12.716Z,15.00
2017-06-17T06:02:40.437Z,15.00
2017-06-17T06:05:08.031Z,16.40
2017-06-17T06:07:35.589Z,15.60
2017-06-17T06:10:03.191Z,14.80
2017-06-17T06:12:30.807Z,14.70
2017-06-17T06:14:58.394Z,14.00
2017-06-17T06:17:25.945Z,12.90
2017-06-17T06:19:53.513Z,15.30
2017-06-17T06:22:21.059Z,15.30
2017-06-17T06:24:49.370Z,14.40
2017-06-17T06:27:16.927Z,14.40
2017-06-17T06:29:44.464Z,14.70
2017-06-17T06:32:12.897Z,14.40
2017-06-17T06:34:40.447Z,14.40
2017-06-17T06:37:08.481Z,16.00
2017-06-17T06:39:36.029Z,15.60
2017-06-17T06:42:03.590Z,15.00
2017-06-17T06:44:33.240Z,14.90
2017-06-17T06:47:01.595Z,18.50
2017-06-17T06:49:29.175Z,18.50
2017-06-17T06:51:57.489Z,24.40
2017-06-17T06:54:25.073Z,24.30
2017-06-17T06:56:52.624Z,26.10
2017-06-17T06:59:21.038Z,27.60
2017-06-17T07:01:48.591Z,28.20
2017-06-17T07:04:16.146Z,28.90
2017-06-17T07:06:43.707Z,29.00
2017-06-17T07:09:11.269Z,28.50
2017-06-17T07:11:38.833Z,28.00
2017-06-17T07:14:06.382Z,26.20
2017-06-17T07:16:34.706Z,25.30
2017-06-17T07:19:02.270Z,25.30
2017-06-17T07:21:30.840Z,24.30
2017-06-17T07:23:58.652Z,25.40
2017-06-17T07:26:26.985Z,27.60
2017-06-17T07:28:54.538Z,27.60
2017-06-17T07:31:22.223Z,28.30
2017-06-17T07:33:49.764Z,28.60
2017-06-17T07:36:17.321Z,28.60
2017-06-17T07:38:45.647Z,28.70
2017-06-17T07:41:13.193Z,28.70
2017-06-17T07:43:40.749Z,28.40
2017-06-17T07:46:08.332Z,28.80
2017-06-17T07:48:35.902Z,29.50
2017-06-17T07:51:03.947Z,28.90
2017-06-17T07:53:32.260Z,28.90
2017-06-17T07:55:59.838Z,28.90
2017-06-17T07:58:27.385Z,27.50
2017-06-17T08:00:54.940Z,26.30
2017-06-17T08:03:22.507Z,25.30
2017-06-17T08:05:50.041Z,25.80
2017-06-17T08:08:18.369Z,25.40
2017-06-17T08:10:45.955Z,25.40
2017-06-17T08:13:13.490Z,25.90
2017-06-17T08:15:41.039Z,25.90
2017-06-17T08:18:08.606Z,26.50
2017-06-17T08:20:36.141Z,26.60
2017-06-17T08:23:03.717Z,27.20
2017-06-17T08:25:32.466Z,27.30
2017-06-17T08:28:00.056Z,27.90
2017-06-17T08:30:27.597Z,26.70
2017-06-17T08:32:55.179Z,25.90
2017-06-17T08:35:22.717Z,25.40
2017-06-17T08:37:50.323Z,24.50
2017-06-17T08:40:18.644Z,23.30
2017-06-17T08:42:46.205Z,23.20
2017-06-17T08:45:13.763Z,23.80
2017-06-17T08:47:41.299Z,24.10
2017-06-17T08:50:09.617Z,26.10
2017-06-17T08:52:37.161Z,26.10
2017-06-17T08:55:04.743Z,25.90
2017-06-17T08:57:32.282Z,25.30
2017-06-17T08:59:59.857Z,24.50
2017-06-17T09:02:27.417Z,25.20
2017-06-17T09:04:54.944Z,24.80
2017-06-17T09:07:22.516Z,23.40
2017-06-17T09:09:50.054Z,23.90
2017-06-17T09:12:17.659Z,20.80
2017-06-17T09:14:45.225Z,22.10
2017-06-17T09:17:12.761Z,20.80
2017-06-17T09:19:40.413Z,21.30
2017-06-17T09:22:07.984Z,20.70
2017-06-17T09:24:35.518Z,20.50
2017-06-17T09:27:03.100Z,20.60
2017-06-17T09:29:30.665Z,21.80
2017-06-17T09:31:58.249Z,21.00
2017-06-17T09:34:25.798Z,21.70
2017-06-17T09:36:53.330Z,21.70
2017-06-17T09:39:21.681Z,21.60
2017-06-17T09:41:51.065Z,22.40
2017-06-17T09:44:18.600Z,22.20
2017-06-17T09:46:46.148Z,22.00
2017-06-17T09:49:14.466Z,22.30
2017-06-17T09:51:42.035Z,22.30
2017-06-17T09:54:09.601Z,22.90
2017-06-17T09:56:37.133Z,22.20
2017-06-17T09:59:04.747Z,21.20
2017-06-17T10:01:32.287Z,21.80
2017-06-17T10:03:59.901Z,23.70
2017-06-17T10:06:28.288Z,23.40
2017-06-17T10:08:55.841Z,23.30
2017-06-17T10:11:23.406Z,21.50
2017-06-17T10:13:50.989Z,22.10
2017-06-17T10:16:19.324Z,22.50
2017-06-17T10:18:46.871Z,21.90
2017-06-17T10:21:14.414Z,21.50
2017-06-17T10:23:42.007Z,21.90
2017-06-17T10:26:09.560Z,23.10
2017-06-17T10:28:37.312Z,24.50
2017-06-17T10:31:05.630Z,24.20
2017-06-17T10:33:33.217Z,24.20
2017-06-17T10:36:00.769Z,22.20
2017-06-17T10:38:28.319Z,21.60
2017-06-17T10:40:55.871Z,20.80
2017-06-17T10:43:23.445Z,21.50
2017-06-17T10:45:51.041Z,22.90
2017-06-17T10:48:18.612Z,23.50
2017-06-17T10:50:46.494Z,24.50
2017-06-17T10:53:14.054Z,23.30
2017-06-17T10:55:41.646Z,22.10
2017-06-17T10:58:09.406Z,21.90
2017-06-17T11:00:36.976Z,22.50
2017-06-17T11:03:05.295Z,21.60
2017-06-17T11:05:32.891Z,21.60
2017-06-17T11:08:00.435Z,21.60
2017-06-17T11:10:27.981Z,22.70
2017-06-17T11:12:55.561Z,23.30
2017-06-17T11:15:23.111Z,24.00
2017-06-17T11:17:50.694Z,24.30
2017-06-17T11:20:18.236Z,24.20
2017-06-17T11:22:45.786Z,22.00
2017-06-17T11:25:13.346Z,21.60
2017-06-17T11:27:40.954Z,20.20
2017-06-17T11:30:08.541Z,20.80
2017-06-17T11:32:36.064Z,21.90
2017-06-17T11:35:03.602Z,22.10
2017-06-17T11:37:31.170Z,22.40
2017-06-17T11:39:58.721Z,21.40
2017-06-17T11:42:26.301Z,21.60
2017-06-17T11:44:54.605Z,22.20
2017-06-17T11:47:22.149Z,22.10
2017-06-17T11:49:49.737Z,22.90
2017-06-17T11:52:18.222Z,22.50
2017-06-17T11:54:45.772Z,21.90
2017-06-17T11:57:13.343Z,22.60
2017-06-17T11:59:40.902Z,22.90
2017-06-17T12:02:08.492Z,23.50
2017-06-17T12:04:36.043Z,22.70
2017-06-17T12:07:03.596Z,21.40
2017-06-17T12:09:31.962Z,22.10
2017-06-17T12:11:59.504Z,22.10
2017-06-17T12:14:27.078Z,22.90
2017-06-17T12:16:54.660Z,23.70
2017-06-17T12:19:22.190Z,23.90
2017-06-17T12:21:49.754Z,22.20
2017-06-17T12:24:17.344Z,20.80
2017-06-17T12:26:44.919Z,20.80
2017-06-17T12:29:12.566Z,21.70
2017-06-17T12:31:40.116Z,22.60
2017-06-17T12:34:07.649Z,24.10
2017-06-17T12:36:35.257Z,25.50
2017-06-17T12:39:02.795Z,22.60
2017-06-17T12:41:30.329Z,22.60
2017-06-17T12:43:58.774Z,21.60
2017-06-17T12:46:26.311Z,22.20
2017-06-17T12:48:53.889Z,23.30
2017-06-17T12:51:21.781Z,22.90
2017-06-17T12:53:49.377Z,22.30
2017-06-17T12:56:18.402Z,21.90
2017-06-17T12:58:46.575Z,21.90
2017-06-17T13:01:14.109Z,22.10
2017-06-17T13:03:41.705Z,22.20
2017-06-17T13:06:09.251Z,22.40
2017-06-17T13:08:36.814Z,22.90
2017-06-17T13:11:05.141Z,22.00
2017-06-17T13:13:32.696Z,22.00
2017-06-17T13:16:00.289Z,22.50
2017-06-17T13:18:27.842Z,22.10
2017-06-17T13:20:55.414Z,22.90
2017-06-17T13:23:22.963Z,23.50
2017-06-17T13:25:50.529Z,23.60
2017-06-17T13:28:18.063Z,23.50
2017-06-17T13:30:45.653Z,23.10
2017-06-17T13:33:13.206Z,23.70
2017-06-17T13:35:40.754Z,23.30
2017-06-17T13:38:08.306Z,23.20
2017-06-17T13:40:35.872Z,23.50
2017-06-17T13:43:04.248Z,23.10
2017-06-17T13:45:32.566Z,22.90
2017-06-17T13:48:00.138Z,22.80
2017-06-17T13:50:27.706Z,22.70
2017-06-17T13:52:55.293Z,22.80
2017-06-17T13:55:22.826Z,23.30
2017-06-17T13:57:50.388Z,23.30
2017-06-17T14:00:17.933Z,24.00
2017-06-17T14:02:46.262Z,23.20
2017-06-17T14:05:13.832Z,23.20
2017-06-17T14:07:41.834Z,23.60
2017-06-17T14:10:12.604Z,24.60
2017-06-17T14:12:40.148Z,24.70
2017-06-17T14:15:08.576Z,23.00
2017-06-17T14:17:36.115Z,22.90
2017-06-17T14:20:03.680Z,23.00
2017-06-17T14:22:31.245Z,23.00
2017-06-17T14:24:58.785Z,22.60
2017-06-17T14:27:27.132Z,24.00
2017-06-17T14:29:54.694Z,23.70
2017-06-17T14:32:22.265Z,24.80
2017-06-17T14:34:49.833Z,25.00
2017-06-17T14:37:17.396Z,24.00
2017-06-17T14:39:45.008Z,24.40
2017-06-17T14:42:12.607Z,24.00
2017-06-17T14:44:40.156Z,24.80
2017-06-17T14:47:07.718Z,25.30
2017-06-17T14:49:35.307Z,24.50
2017-06-17T14:52:02.836Z,23.30
2017-06-17T14:54:31.168Z,21.90
2017-06-17T14:56:59.660Z,21.90
2017-06-17T14:59:27.200Z,22.00
2017-06-17T15:01:54.764Z,22.60
2017-06-17T15:04:22.334Z,21.10
2017-06-17T15:06:49.912Z,21.90
2017-06-17T15:09:17.441Z,21.00
2017-06-17T15:11:44.981Z,21.20
2017-06-17T15:14:13.333Z,21.60
2017-06-17T15:16:40.892Z,21.60
2017-06-17T15:19:08.461Z,22.30
2017-06-17T15:21:36.798Z,21.50
2017-06-17T15:24:04.355Z,21.60
2017-06-17T15:26:33.296Z,22.20
2017-06-17T15:29:00.845Z,22.20
2017-06-17T15:31:28.398Z,22.60
2017-06-17T15:33:55.966Z,22.80
2017-06-17T15:36:23.508Z,22.90
2017-06-17T15:38:51.801Z,22.90
2017-06-17T15:41:19.358Z,22.90
2017-06-17T15:43:46.899Z,22.80
2017-06-17T15:46:14.470Z,22.20
2017-06-17T15:48:42.011Z,21.80
2017-06-17T15:51:09.649Z,22.60
2017-06-17T15:53:37.188Z,22.90
2017-06-17T15:56:04.793Z,23.70
2017-06-17T15:58:32.345Z,24.40
2017-06-17T16:00:59.938Z,23.50
2017-06-17T16:03:27.576Z,23.80
2017-06-17T16:05:55.163Z,23.70
2017-06-17T16:08:22.701Z,23.10
2017-06-17T16:10:50.246Z,23.10
2017-06-17T16:13:18.525Z,23.00
2017-06-17T16:15:46.081Z,23.20
2017-06-17T16:18:13.682Z,22.70
2017-06-17T16:20:41.246Z,23.00
2017-06-17T16:23:08.826Z,23.20
2017-06-17T16:25:36.392Z,23.60
2017-06-17T16:28:03.956Z,23.80
2017-06-17T16:30:31.495Z,23.40
2017-06-17T16:32:59.026Z,23.20
2017-06-17T16:35:26.604Z,22.80
2017-06-17T16:37:54.205Z,23.00
2017-06-17T16:40:21.765Z,23.70
2017-06-17T16:42:49.365Z,23.90
2017-06-17T16:45:17.014Z,23.90
2017-06-17T16:47:44.541Z,24.40
2017-06-17T16:50:12.117Z,25.00
2017-06-17T16:52:39.687Z,26.00
2017-06-17T16:55:07.237Z,26.00
2017-06-17T16:57:34.823Z,25.90
2017-06-17T17:00:02.370Z,26.10
2017-06-17T17:02:29.925Z,25.90
2017-06-17T17:04:57.471Z,26.10
2017-06-17T17:07:25.081Z,25.80
2017-06-17T17:09:53.429Z,25.70
2017-06-17T17:12:21.831Z,26.30
2017-06-17T17:14:49.361Z,26.30
2017-06-17T17:17:17.682Z,26.20
2017-06-17T17:19:46.061Z,26.50
2017-06-17T17:22:13.673Z,27.00
2017-06-17T17:24:41.262Z,27.40
2017-06-17T17:27:08.838Z,27.30
2017-06-17T17:29:36.403Z,27.00
2017-06-17T17:32:03.963Z,27.50
2017-06-17T17:34:31.584Z,27.90
2017-06-17T17:36:59.151Z,28.80
2017-06-17T17:39:26.701Z,29.20
2017-06-17T17:41:54.270Z,29.10
2017-06-17T17:44:21.816Z,29.10
2017-06-17T17:46:49.385Z,29.10
2017-06-17T17:49:16.925Z,28.80
2017-06-17T17:51:45.256Z,29.00
2017-06-17T17:54:12.794Z,29.00
2017-06-17T17:56:40.404Z,28.80
2017-06-17T17:59:07.940Z,29.20
2017-06-17T18:01:35.519Z,29.20
2017-06-17T18:04:03.081Z,29.30
2017-06-17T18:06:30.661Z,29.60
2017-06-17T18:08:58.247Z,30.00
2017-06-17T18:11:25.773Z,30.40
2017-06-17T18:13:53.329Z,30.80
2017-06-17T18:16:20.877Z,31.70
2017-06-17T18:18:48.455Z,31.30
2017-06-17T18:21:16.022Z,31.20
2017-06-17T18:23:43.564Z,31.60
2017-06-17T18:26:11.125Z,31.80
2017-06-17T18:28:38.717Z,32.20
2017-06-17T18:31:06.257Z,32.40
2017-06-17T18:33:33.802Z,32.70
2017-06-17T18:36:01.388Z,32.80
2017-06-17T18:38:28.954Z,33.40
2017-06-17T18:40:56.533Z,33.90
2017-06-17T18:43:24.069Z,34.30
2017-06-17T18:45:52.425Z,35.10
2017-06-17T18:48:20.794Z,35.10
2017-06-17T18:50:48.366Z,35.30
2017-06-17T18:53:16.250Z,35.60
2017-06-17T18:55:43.836Z,35.90
2017-06-17T18:58:12.162Z,37.30
2017-06-17T19:00:39.713Z,36.40
2017-06-17T19:03:07.273Z,36.40
2017-06-17T19:05:34.821Z,36.80
2017-06-17T19:08:02.386Z,37.00
2017-06-17T19:10:29.933Z,37.40
2017-06-17T19:12:58.289Z,38.50
2017-06-17T19:15:25.874Z,38.50
2017-06-17T19:17:54.188Z,38.90
2017-06-17T19:20:21.773Z,38.80
2017-06-17T19:22:49.303Z,39.40
2017-06-17T19:25:16.898Z,39.80
2017-06-17T19:27:44.447Z,40.20
2017-06-17T19:30:13.026Z,40.80
2017-06-17T19:32:40.592Z,40.70
2017-06-17T19:35:08.207Z,41.40
2017-06-17T19:37:35.764Z,42.10
2017-06-17T19:40:03.302Z,42.50
2017-06-17T19:42:30.887Z,42.90
2017-06-17T19:44:58.430Z,42.90
2017-06-17T19:47:25.991Z,44.00
2017-06-17T19:49:53.531Z,44.80
2017-06-17T19:52:21.097Z,45.00
2017-06-17T19:54:49.404Z,46.20
2017-06-17T19:57:16.989Z,46.20
2017-06-17T19:59:44.547Z,46.60
2017-06-17T20:02:12.085Z,47.40
2017-06-17T20:04:40.428Z,47.80
2017-06-17T20:07:07.969Z,47.90
2017-06-17T20:09:35.533Z,48.50
2017-06-17T20:12:03.077Z,49.00
2017-06-17T20:14:30.630Z,49.20
2017-06-17T20:16:58.206Z,49.60
2017-06-17T20:19:25.772Z,49.90
2017-06-17T20:21:58.938Z,50.40
2017-06-17T20:24:31.084Z,51.60
2017-06-17T20:26:58.629Z,51.60
2017-06-17T20:29:26.229Z,52.10
2017-06-17T20:31:53.813Z,52.50
2017-06-17T20:34:21.406Z,53.30
2017-06-17T20:36:48.984Z,53.30
2017-06-17T20:39:16.856Z,53.30
2017-06-17T20:41:44.554Z,53.70
2017-06-17T20:44:12.279Z,54.10
2017-06-17T20:46:39.820Z,54.30
2017-06-17T20:49:07.429Z,54.80
2017-06-17T20:51:35.001Z,55.20
2017-06-17T20:54:02.870Z,55.50
2017-06-17T20:56:30.457Z,55.90
2017-06-17T20:58:58.004Z,55.80
2017-06-17T21:01:25.572Z,56.40
2017-06-17T21:03:53.133Z,56.90
2017-06-17T21:06:20.674Z,57.20
2017-06-17T21:08:48.264Z,57.30
2017-06-17T21:11:15.797Z,58.70
2017-06-17T21:13:43.386Z,58.20
2017-06-17T21:16:10.924Z,58.60
2017-06-17T21:18:38.510Z,59.20
2017-06-17T21:21:06.044Z,58.90
2017-06-17T21:23:33.635Z,59.90
2017-06-17T21:26:01.178Z,60.30
2017-06-17T21:28:28.793Z,61.20
2017-06-17T21:30:56.397Z,61.20
2017-06-17T21:33:23.943Z,61.90
2017-06-17T21:35:51.512Z,62.10
2017-06-17T21:38:19.845Z,63.60
2017-06-17T21:40:47.514Z,63.60
2017-06-17T21:43:15.058Z,64.20
2017-06-17T21:45:42.645Z,64.40
2017-06-17T21:48:10.194Z,64.10
2017-06-17T21:50:37.775Z,64.70
2017-06-17T21:53:05.309Z,64.90
2017-06-17T21:55:32.844Z,64.00
2017-06-17T21:58:00.389Z,65.80
2017-06-17T22:00:27.947Z,65.80
2017-06-17T22:02:55.529Z,65.80
2017-06-17T22:05:23.060Z,65.40
2017-06-17T22:07:50.628Z,65.60
2017-06-17T22:10:18.178Z,65.80
2017-06-17T22:12:45.738Z,66.50
2017-06-17T22:15:13.281Z,66.70
2017-06-17T22:17:40.842Z,66.70
2017-06-17T22:20:09.129Z,67.90
2017-06-17T22:22:37.417Z,67.90
2017-06-17T22:25:04.967Z,67.90
2017-06-17T22:27:33.280Z,69.40
2017-06-17T22:30:00.852Z,68.60
2017-06-17T22:32:28.380Z,68.20
2017-06-17T22:34:56.701Z,68.50
2017-06-17T22:37:24.268Z,68.50
2017-06-17T22:39:51.844Z,69.00
2017-06-17T22:42:19.381Z,69.30
2017-06-17T22:44:46.976Z,70.00
2017-06-17T22:47:14.493Z,70.10
2017-06-17T22:49:42.792Z,70.80
2017-06-17T22:52:10.357Z,70.60
2017-06-17T22:54:37.911Z,71.20
2017-06-17T22:57:06.240Z,71.70
2017-06-17T22:59:33.817Z,71.70
2017-06-17T23:02:01.455Z,71.80
2017-06-17T23:04:28.993Z,72.50
2017-06-17T23:06:56.558Z,73.00
2017-06-17T23:09:24.114Z,72.90
2017-06-17T23:11:52.450Z,74.30
2017-06-17T23:14:20.033Z,75.00
2017-06-17T23:16:47.594Z,74.60
2017-06-17T23:19:15.153Z,75.00
2017-06-17T23:21:42.707Z,75.00
2017-06-17T23:24:10.277Z,75.20
2017-06-17T23:26:37.801Z,75.50
2017-06-17T23:29:05.390Z,75.30
2017-06-17T23:31:32.966Z,75.30
2017-06-17T23:34:00.545Z,75.90
2017-06-17T23:36:28.086Z,76.00
2017-06-17T23:38:55.626Z,76.70
2017-06-17T23:41:23.202Z,77.20
2017-06-17T23:43:50.771Z,77.20
2017-06-17T23:46:18.342Z,76.80
2017-06-17T23:48:45.878Z,77.50
2017-06-17T23:51:13.441Z,78.10
2017-06-17T23:53:41.729Z,78.70
2017-06-17T23:56:09.287Z,78.70
2017-06-17T23:58:36.855Z,78.80
